sensor_id;sensor_type;location;lat;lon;timestamp;pressure;altitude;pressure_sealevel;temperature;humidity
7962;BME280;4026;43.652;24.906;2024-02-21T00:01:22;99902.78;;;4.57;100.00
7962;BME280;4026;43.652;24.906;2024-02-21T00:03:49;99901.13;;;4.57;100.00
7962;BME280;4026;43.652;24.906;2024-02-21T00:06:16;99897.69;;;4.58;100.00
7962;BME280;4026;43.652;24.906;2024-02-21T00:08:43;99898.56;;;4.57;100.00
7962;BME280;4026;43.652;24.906;2024-02-21T00:11:09;99897.91;;;4.52;100.00
7962;BME280;4026;43.652;24.906;2024-02-21T00:13:36;99893.16;;;4.43;100.00
7962;BME280;4026;43.652;24.906;2024-02-21T00:16:05;99885.34;;;4.49;100.00
7962;BME280;4026;43.652;24.906;2024-02-21T00:18:32;99886.41;;;4.42;100.00
7962;BME280;4026;43.652;24.906;2024-02-21T00:20:58;99884.78;;;4.41;100.00
7962;BME280;4026;43.652;24.906;2024-02-21T00:23:27;99891.69;;;4.36;100.00
7962;BME280;4026;43.652;24.906;2024-02-21T00:25:54;99890.25;;;4.28;100.00
7962;BME280;4026;43.652;24.906;2024-02-21T00:28:20;99897.13;;;4.25;100.00
7962;BME280;4026;43.652;24.906;2024-02-21T00:30:47;99884.66;;;4.19;100.00
7962;BME280;4026;43.652;24.906;2024-02-21T00:33:17;99881.31;;;4.18;100.00
7962;BME280;4026;43.652;24.906;2024-02-21T00:35:44;99888.91;;;4.18;100.00
7962;BME280;4026;43.652;24.906;2024-02-21T00:38:10;99889.81;;;4.16;100.00
7962;BME280;4026;43.652;24.906;2024-02-21T00:40:37;99885.06;;;4.06;100.00
7962;BME280;4026;43.652;24.906;2024-02-21T00:43:04;99884.25;;;4.06;100.00
7962;BME280;4026;43.652;24.906;2024-02-21T00:45:31;99881.69;;;4.07;100.00
7962;BME280;4026;43.652;24.906;2024-02-21T00:47:58;99881.72;;;4.06;100.00
7962;BME280;4026;43.652;24.906;2024-02-21T00:50:26;99872.34;;;3.83;100.00
7962;BME280;4026;43.652;24.906;2024-02-21T00:52:53;99874.63;;;3.91;100.00
7962;BME280;4026;43.652;24.906;2024-02-21T00:55:20;99870.63;;;3.83;100.00
7962;BME280;4026;43.652;24.906;2024-02-21T00:57:46;99870.53;;;3.86;100.00
7962;BME280;4026;43.652;24.906;2024-02-21T01:00:14;99868.75;;;3.90;100.00
7962;BME280;4026;43.652;24.906;2024-02-21T01:02:41;99869.56;;;3.91;100.00
7962;BME280;4026;43.652;24.906;2024-02-21T01:05:08;99872.97;;;3.90;100.00
7962;BME280;4026;43.652;24.906;2024-02-21T01:07:36;99867.91;;;3.90;100.00
7962;BME280;4026;43.652;24.906;2024-02-21T01:10:03;99864.63;;;3.88;100.00
7962;BME280;4026;43.652;24.906;2024-02-21T01:12:30;99865.44;;;3.88;100.00
7962;BME280;4026;43.652;24.906;2024-02-21T01:14:57;99857.25;;;3.80;100.00
7962;BME280;4026;43.652;24.906;2024-02-21T01:17:24;99854.06;;;3.75;100.00
7962;BME280;4026;43.652;24.906;2024-02-21T01:19:50;99848.06;;;3.77;100.00
7962;BME280;4026;43.652;24.906;2024-02-21T01:22:17;99847.88;;;3.83;100.00
7962;BME280;4026;43.652;24.906;2024-02-21T01:24:45;99846.84;;;3.89;100.00
7962;BME280;4026;43.652;24.906;2024-02-21T01:27:12;99845.53;;;3.77;100.00
7962;BME280;4026;43.652;24.906;2024-02-21T01:29:39;99838.84;;;3.76;100.00
7962;BME280;4026;43.652;24.906;2024-02-21T01:32:06;99841.50;;;3.72;100.00
7962;BME280;4026;43.652;24.906;2024-02-21T01:34:33;99836.72;;;3.64;100.00
7962;BME280;4026;43.652;24.906;2024-02-21T01:37:00;99839.16;;;3.66;100.00
7962;BME280;4026;43.652;24.906;2024-02-21T01:39:30;99839.03;;;3.70;100.00
7962;BME280;4026;43.652;24.906;2024-02-21T01:41:58;99831.66;;;3.64;100.00
7962;BME280;4026;43.652;24.906;2024-02-21T01:44:25;99831.75;;;3.61;100.00
7962;BME280;4026;43.652;24.906;2024-02-21T01:46:52;99829.31;;;3.58;100.00
7962;BME280;4026;43.652;24.906;2024-02-21T01:49:19;99835.13;;;3.60;100.00
7962;BME280;4026;43.652;24.906;2024-02-21T01:51:47;99833.50;;;3.59;100.00
7962;BME280;4026;43.652;24.906;2024-02-21T01:54:15;99830.91;;;3.60;100.00
7962;BME280;4026;43.652;24.906;2024-02-21T01:56:42;99828.44;;;3.59;100.00
7962;BME280;4026;43.652;24.906;2024-02-21T01:59:11;99831.00;;;3.57;100.00
7962;BME280;4026;43.652;24.906;2024-02-21T02:01:40;99830.38;;;3.51;100.00
7962;BME280;4026;43.652;24.906;2024-02-21T02:04:07;99835.03;;;3.63;100.00
7962;BME280;4026;43.652;24.906;2024-02-21T02:06:35;99834.94;;;3.66;100.00
7962;BME280;4026;43.652;24.906;2024-02-21T02:09:02;99839.91;;;3.69;100.00
7962;BME280;4026;43.652;24.906;2024-02-21T02:11:28;99838.16;;;3.71;100.00
7962;BME280;4026;43.652;24.906;2024-02-21T02:13:55;99838.44;;;3.62;100.00
7962;BME280;4026;43.652;24.906;2024-02-21T02:16:24;99836.91;;;3.58;100.00
7962;BME280;4026;43.652;24.906;2024-02-21T02:18:51;99841.88;;;3.61;100.00
7962;BME280;4026;43.652;24.906;2024-02-21T02:21:23;99830.38;;;3.51;100.00
7962;BME280;4026;43.652;24.906;2024-02-21T02:23:55;99832.06;;;3.50;100.00
7962;BME280;4026;43.652;24.906;2024-02-21T02:26:22;99826.09;;;3.53;100.00
7962;BME280;4026;43.652;24.906;2024-02-21T02:28:49;99832.66;;;3.58;100.00
7962;BME280;4026;43.652;24.906;2024-02-21T02:31:16;99837.22;;;3.47;100.00
7962;BME280;4026;43.652;24.906;2024-02-21T02:33:42;99839.03;;;3.44;100.00
7962;BME280;4026;43.652;24.906;2024-02-21T02:36:10;99834.91;;;3.41;100.00
7962;BME280;4026;43.652;24.906;2024-02-21T02:38:37;99841.59;;;3.42;100.00
7962;BME280;4026;43.652;24.906;2024-02-21T02:41:05;99842.50;;;3.39;100.00
7962;BME280;4026;43.652;24.906;2024-02-21T02:43:32;99845.03;;;3.39;100.00
7962;BME280;4026;43.652;24.906;2024-02-21T02:45:58;99848.47;;;3.37;100.00
7962;BME280;4026;43.652;24.906;2024-02-21T02:48:25;99846.97;;;3.31;100.00
7962;BME280;4026;43.652;24.906;2024-02-21T02:50:52;99853.00;;;3.27;100.00
7962;BME280;4026;43.652;24.906;2024-02-21T02:53:19;99844.81;;;3.19;100.00
7962;BME280;4026;43.652;24.906;2024-02-21T02:55:46;99846.50;;;3.20;100.00
7962;BME280;4026;43.652;24.906;2024-02-21T02:58:14;99845.63;;;3.20;100.00
7962;BME280;4026;43.652;24.906;2024-02-21T03:00:41;99843.81;;;3.25;100.00
7962;BME280;4026;43.652;24.906;2024-02-21T03:03:07;99840.38;;;3.27;100.00
7962;BME280;4026;43.652;24.906;2024-02-21T03:05:34;99841.16;;;3.29;100.00
7962;BME280;4026;43.652;24.906;2024-02-21T03:08:01;99843.53;;;3.34;100.00
7962;BME280;4026;43.652;24.906;2024-02-21T03:10:32;99841.16;;;3.29;100.00
7962;BME280;4026;43.652;24.906;2024-02-21T03:12:59;99828.56;;;3.28;100.00
7962;BME280;4026;43.652;24.906;2024-02-21T03:15:27;99837.75;;;3.30;100.00
7962;BME280;4026;43.652;24.906;2024-02-21T03:17:54;99829.38;;;3.28;100.00
7962;BME280;4026;43.652;24.906;2024-02-21T03:20:21;99829.28;;;3.31;100.00
7962;BME280;4026;43.652;24.906;2024-02-21T03:22:47;99827.13;;;3.47;100.00
7962;BME280;4026;43.652;24.906;2024-02-21T03:25:14;99832.31;;;3.43;100.00
7962;BME280;4026;43.652;24.906;2024-02-21T03:27:41;99834.94;;;3.39;100.00
7962;BME280;4026;43.652;24.906;2024-02-21T03:30:09;99828.16;;;3.40;100.00
7962;BME280;4026;43.652;24.906;2024-02-21T03:32:37;99840.78;;;3.42;100.00
7962;BME280;4026;43.652;24.906;2024-02-21T03:35:05;99826.63;;;3.36;100.00
7962;BME280;4026;43.652;24.906;2024-02-21T03:37:31;99830.03;;;3.35;100.00
7962;BME280;4026;43.652;24.906;2024-02-21T03:39:58;99830.66;;;3.42;100.00
7962;BME280;4026;43.652;24.906;2024-02-21T03:42:25;99832.50;;;3.36;100.00
7962;BME280;4026;43.652;24.906;2024-02-21T03:44:54;99830.94;;;3.32;100.00
7962;BME280;4026;43.652;24.906;2024-02-21T03:47:21;99839.97;;;3.39;100.00
7962;BME280;4026;43.652;24.906;2024-02-21T03:49:49;99832.31;;;3.43;100.00
7962;BME280;4026;43.652;24.906;2024-02-21T03:52:16;99839.75;;;3.47;100.00
7962;BME280;4026;43.652;24.906;2024-02-21T03:54:43;99841.38;;;3.50;100.00
7962;BME280;4026;43.652;24.906;2024-02-21T03:57:10;99840.38;;;3.54;100.00
7962;BME280;4026;43.652;24.906;2024-02-21T03:59:37;99826.97;;;3.52;100.00
7962;BME280;4026;43.652;24.906;2024-02-21T04:02:05;99833.81;;;3.48;100.00
7962;BME280;4026;43.652;24.906;2024-02-21T04:04:34;99834.59;;;3.50;100.00
7962;BME280;4026;43.652;24.906;2024-02-21T04:07:04;99838.03;;;3.49;100.00
7962;BME280;4026;43.652;24.906;2024-02-21T04:09:32;99841.50;;;3.45;100.00
7962;BME280;4026;43.652;24.906;2024-02-21T04:12:00;99837.25;;;3.46;100.00
7962;BME280;4026;43.652;24.906;2024-02-21T04:14:27;99832.00;;;3.52;100.00
7962;BME280;4026;43.652;24.906;2024-02-21T04:16:53;99826.63;;;3.62;100.00
7962;BME280;4026;43.652;24.906;2024-02-21T04:19:20;99829.88;;;3.66;100.00
7962;BME280;4026;43.652;24.906;2024-02-21T04:21:47;99837.56;;;3.63;100.00
7962;BME280;4026;43.652;24.906;2024-02-21T04:24:15;99835.91;;;3.62;100.00
7962;BME280;4026;43.652;24.906;2024-02-21T04:26:42;99841.88;;;3.61;100.00
7962;BME280;4026;43.652;24.906;2024-02-21T04:29:09;99848.66;;;3.59;100.00
7962;BME280;4026;43.652;24.906;2024-02-21T04:31:36;99846.03;;;3.62;100.00
7962;BME280;4026;43.652;24.906;2024-02-21T04:34:03;99845.16;;;3.63;100.00
7962;BME280;4026;43.652;24.906;2024-02-21T04:36:30;99845.16;;;3.63;100.00
7962;BME280;4026;43.652;24.906;2024-02-21T04:38:56;99849.06;;;3.73;100.00
7962;BME280;4026;43.652;24.906;2024-02-21T04:41:25;99848.16;;;3.74;100.00
7962;BME280;4026;43.652;24.906;2024-02-21T04:43:52;99847.31;;;3.75;100.00
7962;BME280;4026;43.652;24.906;2024-02-21T04:46:18;99852.31;;;3.77;100.00
7962;BME280;4026;43.652;24.906;2024-02-21T04:48:45;99849.53;;;3.84;100.00
7962;BME280;4026;43.652;24.906;2024-02-21T04:51:12;99856.03;;;3.92;100.00
7962;BME280;4026;43.652;24.906;2024-02-21T04:53:39;99845.78;;;3.96;100.00
7962;BME280;4026;43.652;24.906;2024-02-21T04:56:06;99850.56;;;4.04;100.00
7962;BME280;4026;43.652;24.906;2024-02-21T04:58:37;99847.06;;;4.08;100.00
7962;BME280;4026;43.652;24.906;2024-02-21T05:01:04;99844.59;;;4.06;100.00
7962;BME280;4026;43.652;24.906;2024-02-21T05:03:31;99840.25;;;4.10;100.00
7962;BME280;4026;43.652;24.906;2024-02-21T05:05:59;99836.75;;;4.14;100.00
7962;BME280;4026;43.652;24.906;2024-02-21T05:08:25;99850.09;;;4.19;100.00
7962;BME280;4026;43.652;24.906;2024-02-21T05:10:52;99843.25;;;4.21;100.00
7962;BME280;4026;43.652;24.906;2024-02-21T05:13:19;99843.19;;;4.23;100.00
7962;BME280;4026;43.652;24.906;2024-02-21T05:15:47;99848.97;;;4.26;100.00
7962;BME280;4026;43.652;24.906;2024-02-21T05:18:14;99850.69;;;4.26;100.00
7962;BME280;4026;43.652;24.906;2024-02-21T05:20:41;99849.81;;;4.27;100.00
7962;BME280;4026;43.652;24.906;2024-02-21T05:23:08;99853.84;;;4.32;100.00
7962;BME280;4026;43.652;24.906;2024-02-21T05:25:35;99852.88;;;4.37;100.00
7962;BME280;4026;43.652;24.906;2024-02-21T05:28:01;99845.16;;;4.40;100.00
7962;BME280;4026;43.652;24.906;2024-02-21T05:30:28;99852.66;;;4.43;100.00
7962;BME280;4026;43.652;24.906;2024-02-21T05:32:57;99851.72;;;4.45;100.00
7962;BME280;4026;43.652;24.906;2024-02-21T05:35:27;99851.50;;;4.51;100.00
7962;BME280;4026;43.652;24.906;2024-02-21T05:37:54;99855.00;;;4.47;100.00
7962;BME280;4026;43.652;24.906;2024-02-21T05:40:21;99858.53;;;4.43;100.00
7962;BME280;4026;43.652;24.906;2024-02-21T05:42:48;99853.41;;;4.45;100.00
7962;BME280;4026;43.652;24.906;2024-02-21T05:45:16;99855.63;;;4.54;100.00
7962;BME280;4026;43.652;24.906;2024-02-21T05:47:43;99855.53;;;4.57;100.00
7962;BME280;4026;43.652;24.906;2024-02-21T05:50:11;99862.13;;;4.61;100.00
7962;BME280;4026;43.652;24.906;2024-02-21T05:52:38;99863.88;;;4.59;100.00
7962;BME280;4026;43.652;24.906;2024-02-21T05:55:06;99862.00;;;4.64;100.00
7962;BME280;4026;43.652;24.906;2024-02-21T05:57:34;99860.16;;;4.69;100.00
7962;BME280;4026;43.652;24.906;2024-02-21T06:00:03;99868.41;;;4.74;100.00
7962;BME280;4026;43.652;24.906;2024-02-21T06:02:31;99873.50;;;4.74;100.00
7962;BME280;4026;43.652;24.906;2024-02-21T06:04:57;99870.94;;;4.74;100.00
7962;BME280;4026;43.652;24.906;2024-02-21T06:07:26;99871.59;;;4.80;100.00
7962;BME280;4026;43.652;24.906;2024-02-21T06:09:52;99878.97;;;4.86;100.00
7962;BME280;4026;43.652;24.906;2024-02-21T06:12:19;99878.81;;;4.90;100.00
7962;BME280;4026;43.652;24.906;2024-02-21T06:14:46;99881.31;;;4.92;100.00
7962;BME280;4026;43.652;24.906;2024-02-21T06:17:13;99886.56;;;4.86;100.00
7962;BME280;4026;43.652;24.906;2024-02-21T06:19:40;99889.09;;;4.86;100.00
7962;BME280;4026;43.652;24.906;2024-02-21T06:22:07;99886.38;;;4.92;100.00
7962;BME280;4026;43.652;24.906;2024-02-21T06:24:35;99889.88;;;4.88;100.00
7962;BME280;4026;43.652;24.906;2024-02-21T06:27:03;99884.59;;;4.94;100.00
7962;BME280;4026;43.652;24.906;2024-02-21T06:29:31;99895.78;;;4.88;100.00
7962;BME280;4026;43.652;24.906;2024-02-21T06:31:58;99890.81;;;4.85;100.00
7962;BME280;4026;43.652;24.906;2024-02-21T06:34:25;99887.91;;;4.96;100.00
7962;BME280;4026;43.652;24.906;2024-02-21T06:36:51;99886.84;;;5.02;100.00
7962;BME280;4026;43.652;24.906;2024-02-21T06:39:18;99898.94;;;4.95;100.00
7962;BME280;4026;43.652;24.906;2024-02-21T06:41:47;99897.69;;;5.05;100.00
7962;BME280;4026;43.652;24.906;2024-02-21T06:44:15;99902.44;;;5.14;100.00
7962;BME280;4026;43.652;24.906;2024-02-21T06:46:42;99899.03;;;5.15;100.00
7962;BME280;4026;43.652;24.906;2024-02-21T06:49:09;99898.91;;;5.18;100.00
7962;BME280;4026;43.652;24.906;2024-02-21T06:51:41;99899.63;;;5.22;100.00
7962;BME280;4026;43.652;24.906;2024-02-21T06:54:08;99897.03;;;5.24;100.00
7962;BME280;4026;43.652;24.906;2024-02-21T06:56:35;99901.88;;;5.30;100.00
7962;BME280;4026;43.652;24.906;2024-02-21T06:59:03;99911.94;;;5.31;100.00
7962;BME280;4026;43.652;24.906;2024-02-21T07:01:30;99911.78;;;5.36;100.00
7962;BME280;4026;43.652;24.906;2024-02-21T07:03:57;99899.75;;;5.41;100.00
7962;BME280;4026;43.652;24.906;2024-02-21T07:06:24;99912.97;;;5.49;100.00
7962;BME280;4026;43.652;24.906;2024-02-21T07:08:51;99912.81;;;5.54;100.00
7962;BME280;4026;43.652;24.906;2024-02-21T07:11:18;99913.84;;;5.48;100.00
7962;BME280;4026;43.652;24.906;2024-02-21T07:13:44;99919.34;;;5.59;100.00
7962;BME280;4026;43.652;24.906;2024-02-21T07:16:13;99915.88;;;5.62;100.00
7962;BME280;4026;43.652;24.906;2024-02-21T07:18:39;99919.00;;;5.68;100.00
7962;BME280;4026;43.652;24.906;2024-02-21T07:21:06;99924.66;;;5.75;100.00
7962;BME280;4026;43.652;24.906;2024-02-21T07:23:33;99921.44;;;5.70;100.00
7962;BME280;4026;43.652;24.906;2024-02-21T07:26:00;99918.50;;;5.81;100.00
7962;BME280;4026;43.652;24.906;2024-02-21T07:28:26;99921.69;;;5.86;100.00
7962;BME280;4026;43.652;24.906;2024-02-21T07:30:53;99920.81;;;5.87;100.00
7962;BME280;4026;43.652;24.906;2024-02-21T07:33:21;99918.91;;;5.92;100.00
7962;BME280;4026;43.652;24.906;2024-02-21T07:35:48;99923.13;;;5.93;100.00
7962;BME280;4026;43.652;24.906;2024-02-21T07:48:22;99925.69;;;6.13;100.00
7962;BME280;4026;43.652;24.906;2024-02-21T07:50:52;99922.28;;;6.15;100.00
7962;BME280;4026;43.652;24.906;2024-02-21T07:53:19;99916.25;;;6.17;100.00
7962;BME280;4026;43.652;24.906;2024-02-21T07:55:46;99920.81;;;6.29;100.00
7962;BME280;4026;43.652;24.906;2024-02-21T07:58:13;99925.22;;;6.26;100.00
7962;BME280;4026;43.652;24.906;2024-02-21T08:00:40;99919.66;;;6.37;100.00
7962;BME280;4026;43.652;24.906;2024-02-21T08:03:06;99925.41;;;6.42;100.00
7962;BME280;4026;43.652;24.906;2024-02-21T08:05:35;99928.50;;;6.48;100.00
7962;BME280;4026;43.652;24.906;2024-02-21T08:08:03;99936.72;;;6.55;100.00
7962;BME280;4026;43.652;24.906;2024-02-21T08:10:29;99928.13;;;6.57;100.00
7962;BME280;4026;43.652;24.906;2024-02-21T08:12:56;99929.63;;;6.62;100.00
7962;BME280;4026;43.652;24.906;2024-02-21T08:15:23;99925.94;;;6.69;100.00
7962;BME280;4026;43.652;24.906;2024-02-21T08:17:55;99921.94;;;6.84;100.00
7962;BME280;4026;43.652;24.906;2024-02-21T08:20:25;99925.16;;;6.87;100.00
7962;BME280;4026;43.652;24.906;2024-02-21T08:22:53;99924.63;;;6.99;100.00
7962;BME280;4026;43.652;24.906;2024-02-21T08:25:20;99920.16;;;7.05;100.00
7962;BME280;4026;43.652;24.906;2024-02-21T08:27:46;99918.22;;;7.29;100.00
7962;BME280;4026;43.652;24.906;2024-02-21T08:30:14;99919.47;;;7.39;100.00
7962;BME280;4026;43.652;24.906;2024-02-21T08:32:41;99926.47;;;7.53;100.00
7962;BME280;4026;43.652;24.906;2024-02-21T08:35:08;99928.13;;;7.54;100.00
7962;BME280;4026;43.652;24.906;2024-02-21T08:37:35;99922.88;;;7.57;100.00
7962;BME280;4026;43.652;24.906;2024-02-21T08:40:04;99921.06;;;7.59;100.00
7962;BME280;4026;43.652;24.906;2024-02-21T08:42:34;99918.72;;;7.73;100.00
7962;BME280;4026;43.652;24.906;2024-02-21T08:45:00;99921.13;;;7.93;100.00
7962;BME280;4026;43.652;24.906;2024-02-21T08:47:27;99916.97;;;8.10;100.00
7962;BME280;4026;43.652;24.906;2024-02-21T08:49:54;99922.06;;;8.10;100.00
7962;BME280;4026;43.652;24.906;2024-02-21T08:52:21;99924.16;;;8.19;100.00
7962;BME280;4026;43.652;24.906;2024-02-21T08:54:48;99927.47;;;8.38;100.00
7962;BME280;4026;43.652;24.906;2024-02-21T08:57:17;99926.91;;;8.32;100.00
7962;BME280;4026;43.652;24.906;2024-02-21T08:59:44;99926.09;;;8.49;100.00
7962;BME280;4026;43.652;24.906;2024-02-21T09:02:12;99922.66;;;8.67;100.00
7962;BME280;4026;43.652;24.906;2024-02-21T09:04:41;99929.06;;;8.74;100.00
7962;BME280;4026;43.652;24.906;2024-02-21T09:07:09;99936.44;;;8.63;100.00
7962;BME280;4026;43.652;24.906;2024-02-21T09:09:36;99922.19;;;8.76;100.00
7962;BME280;4026;43.652;24.906;2024-02-21T09:12:04;99931.75;;;8.89;100.00
7962;BME280;4026;43.652;24.906;2024-02-21T09:14:33;99934.22;;;8.90;100.00
7962;BME280;4026;43.652;24.906;2024-02-21T09:17:00;99929.94;;;8.91;100.00
7962;BME280;4026;43.652;24.906;2024-02-21T09:19:27;99931.09;;;9.01;100.00
7962;BME280;4026;43.652;24.906;2024-02-21T09:21:55;99937.69;;;9.21;100.00
7962;BME280;4026;43.652;24.906;2024-02-21T09:24:21;99932.88;;;9.16;100.00
7962;BME280;4026;43.652;24.906;2024-02-21T09:26:48;99934.91;;;9.25;100.00
7962;BME280;4026;43.652;24.906;2024-02-21T09:29:15;99940.84;;;9.42;100.00
7962;BME280;4026;43.652;24.906;2024-02-21T09:31:43;99943.47;;;9.40;100.00
7962;BME280;4026;43.652;24.906;2024-02-21T09:34:11;99945.31;;;9.54;100.00
7962;BME280;4026;43.652;24.906;2024-02-21T09:36:37;99946.75;;;9.74;100.00
7962;BME280;4026;43.652;24.906;2024-02-21T09:39:05;99945.06;;;9.89;100.00
7962;BME280;4026;43.652;24.906;2024-02-21T09:41:36;99944.94;;;9.92;100.00
7962;BME280;4026;43.652;24.906;2024-02-21T09:44:09;99949.88;;;9.79;100.00
7962;BME280;4026;43.652;24.906;2024-02-21T09:46:45;99948.38;;;9.91;100.00
7962;BME280;4026;43.652;24.906;2024-02-21T09:49:23;99942.91;;;9.97;100.00
7962;BME280;4026;43.652;24.906;2024-02-21T09:51:57;99942.84;;;10.29;100.00
7962;BME280;4026;43.652;24.906;2024-02-21T09:54:27;99948.75;;;10.45;100.00
7962;BME280;4026;43.652;24.906;2024-02-21T09:56:54;99946.56;;;10.39;100.00
7962;BME280;4026;43.652;24.906;2024-02-21T09:59:22;99945.66;;;10.69;100.00
7962;BME280;4026;43.652;24.906;2024-02-21T10:01:51;99949.59;;;10.74;100.00
7962;BME280;4026;43.652;24.906;2024-02-21T10:04:19;99944.75;;;10.84;100.00
7962;BME280;4026;43.652;24.906;2024-02-21T10:06:46;99938.81;;;10.83;99.14
7962;BME280;4026;43.652;24.906;2024-02-21T10:09:20;99928.00;;;11.21;99.12
7962;BME280;4026;43.652;24.906;2024-02-21T10:11:48;99934.47;;;11.41;98.18
7962;BME280;4026;43.652;24.906;2024-02-21T10:14:15;99940.50;;;11.67;93.65
7962;BME280;4026;43.652;24.906;2024-02-21T10:16:42;99928.59;;;11.66;93.81
7962;BME280;4026;43.652;24.906;2024-02-21T10:19:17;99929.53;;;11.92;92.60
7962;BME280;4026;43.652;24.906;2024-02-21T10:21:58;99929.78;;;12.02;93.69
7962;BME280;4026;43.652;24.906;2024-02-21T10:24:26;99922.44;;;12.23;91.07
7962;BME280;4026;43.652;24.906;2024-02-21T10:26:59;99916.69;;;12.32;89.50
7962;BME280;4026;43.652;24.906;2024-02-21T10:29:26;99916.78;;;12.56;87.86
7962;BME280;4026;43.652;24.906;2024-02-21T10:32:04;99915.66;;;12.73;86.65
7962;BME280;4026;43.652;24.906;2024-02-21T10:34:32;99913.72;;;12.64;87.98
7962;BME280;4026;43.652;24.906;2024-02-21T10:37:02;99901.72;;;12.77;86.30
7962;BME280;4026;43.652;24.906;2024-02-21T10:39:29;99900.53;;;13.07;83.15
7962;BME280;4026;43.652;24.906;2024-02-21T10:42:00;99896.28;;;12.69;85.71
7962;BME280;4026;43.652;24.906;2024-02-21T10:44:28;99893.81;;;12.80;86.17
7962;BME280;4026;43.652;24.906;2024-02-21T10:46:57;99890.31;;;12.56;87.09
7962;BME280;4026;43.652;24.906;2024-02-21T10:49:24;99887.47;;;12.97;86.12
7962;BME280;4026;43.652;24.906;2024-02-21T10:52:00;99887.69;;;13.07;85.23
7962;BME280;4026;43.652;24.906;2024-02-21T10:54:43;99887.47;;;13.10;85.25
7962;BME280;4026;43.652;24.906;2024-02-21T10:57:12;99877.50;;;13.18;82.56
7962;BME280;4026;43.652;24.906;2024-02-21T10:59:40;99880.72;;;13.09;80.34
7962;BME280;4026;43.652;24.906;2024-02-21T11:02:08;99876.34;;;13.22;79.95
7962;BME280;4026;43.652;24.906;2024-02-21T11:04:35;99879.84;;;13.08;79.50
7962;BME280;4026;43.652;24.906;2024-02-21T11:07:05;99876.19;;;13.00;81.21
7962;BME280;4026;43.652;24.906;2024-02-21T11:09:33;99867.22;;;12.81;80.49
7962;BME280;4026;43.652;24.906;2024-02-21T11:12:02;99865.81;;;12.52;83.68
7962;BME280;4026;43.652;24.906;2024-02-21T11:14:30;99860.22;;;12.83;83.17
7962;BME280;4026;43.652;24.906;2024-02-21T11:16:58;99860.53;;;12.91;83.64
7962;BME280;4026;43.652;24.906;2024-02-21T11:19:26;99859.31;;;13.08;82.57
7962;BME280;4026;43.652;24.906;2024-02-21T11:21:55;99857.47;;;13.10;82.10
7962;BME280;4026;43.652;24.906;2024-02-21T11:24:27;99852.19;;;13.01;80.55
7962;BME280;4026;43.652;24.906;2024-02-21T11:26:55;99857.97;;;12.91;82.12
7962;BME280;4026;43.652;24.906;2024-02-21T11:29:25;99849.50;;;13.02;83.07
7962;BME280;4026;43.652;24.906;2024-02-21T11:31:52;99851.44;;;12.62;81.75
7962;BME280;4026;43.652;24.906;2024-02-21T11:34:19;99841.91;;;13.01;82.20
7962;BME280;4026;43.652;24.906;2024-02-21T11:36:47;99843.69;;;13.11;81.41
7962;BME280;4026;43.652;24.906;2024-02-21T11:39:19;99843.97;;;13.20;81.80
7962;BME280;4026;43.652;24.906;2024-02-21T11:42:00;99842.00;;;13.36;79.90
7962;BME280;4026;43.652;24.906;2024-02-21T11:44:27;99832.34;;;13.03;79.81
7962;BME280;4026;43.652;24.906;2024-02-21T11:46:54;99834.34;;;12.86;81.59
7962;BME280;4026;43.652;24.906;2024-02-21T11:49:20;99827.00;;;12.69;82.87
7962;BME280;4026;43.652;24.906;2024-02-21T11:51:47;99828.72;;;12.81;82.23
7962;BME280;4026;43.652;24.906;2024-02-21T11:54:14;99826.50;;;13.01;83.01
7962;BME280;4026;43.652;24.906;2024-02-21T11:56:42;99829.47;;;13.31;78.86
7962;BME280;4026;43.652;24.906;2024-02-21T11:59:10;99824.25;;;13.20;76.93
7962;BME280;4026;43.652;24.906;2024-02-21T12:01:37;99821.28;;;13.26;76.33
7962;BME280;4026;43.652;24.906;2024-02-21T12:04:04;99821.81;;;13.43;74.49
7962;BME280;4026;43.652;24.906;2024-02-21T12:06:32;99809.69;;;13.45;77.49
7962;BME280;4026;43.652;24.906;2024-02-21T12:08:59;99809.69;;;13.45;77.34
7962;BME280;4026;43.652;24.906;2024-02-21T12:11:26;99799.44;;;13.45;74.27
7962;BME280;4026;43.652;24.906;2024-02-21T12:13:59;99802.25;;;13.53;74.86
7962;BME280;4026;43.652;24.906;2024-02-21T12:16:30;99796.50;;;13.85;72.83
7962;BME280;4026;43.652;24.906;2024-02-21T12:18:57;99793.69;;;13.88;72.21
7962;BME280;4026;43.652;24.906;2024-02-21T12:21:24;99788.09;;;14.39;71.05
7962;BME280;4026;43.652;24.906;2024-02-21T12:23:53;99778.28;;;14.66;66.06
7962;BME280;4026;43.652;24.906;2024-02-21T12:26:20;99784.22;;;14.44;64.43
7962;BME280;4026;43.652;24.906;2024-02-21T12:28:47;99779.31;;;14.19;65.00
7962;BME280;4026;43.652;24.906;2024-02-21T12:31:14;99775.38;;;14.26;65.75
7962;BME280;4026;43.652;24.906;2024-02-21T12:33:43;99775.44;;;14.81;64.84
7962;BME280;4026;43.652;24.906;2024-02-21T12:36:09;99772.47;;;15.29;63.39
7962;BME280;4026;43.652;24.906;2024-02-21T12:38:36;99774.72;;;15.43;61.25
7962;BME280;4026;43.652;24.906;2024-02-21T12:41:03;99773.38;;;15.60;59.57
7962;BME280;4026;43.652;24.906;2024-02-21T12:43:30;99766.72;;;15.04;58.77
7962;BME280;4026;43.652;24.906;2024-02-21T12:45:57;99762.38;;;15.05;59.58
7962;BME280;4026;43.652;24.906;2024-02-21T12:48:24;99764.00;;;15.06;58.51
7962;BME280;4026;43.652;24.906;2024-02-21T12:50:52;99765.47;;;14.87;57.38
7962;BME280;4026;43.652;24.906;2024-02-21T12:53:19;99767.44;;;14.52;60.19
7962;BME280;4026;43.652;24.906;2024-02-21T12:55:48;99758.19;;;14.60;59.52
7962;BME280;4026;43.652;24.906;2024-02-21T12:58:15;99756.06;;;14.20;60.66
7962;BME280;4026;43.652;24.906;2024-02-21T13:00:42;99756.25;;;13.61;64.14
7962;BME280;4026;43.652;24.906;2024-02-21T13:03:10;99751.84;;;14.31;67.19
7962;BME280;4026;43.652;24.906;2024-02-21T13:05:36;99749.88;;;14.89;60.24
7962;BME280;4026;43.652;24.906;2024-02-21T13:08:06;99746.41;;;14.90;57.22
7962;BME280;4026;43.652;24.906;2024-02-21T13:10:33;99737.75;;;14.80;57.40
7962;BME280;4026;43.652;24.906;2024-02-21T13:13:00;99742.16;;;14.89;59.79
7962;BME280;4026;43.652;24.906;2024-02-21T13:15:27;99736.88;;;15.02;57.96
7962;BME280;4026;43.652;24.906;2024-02-21T13:17:55;99746.13;;;15.04;57.49
7962;BME280;4026;43.652;24.906;2024-02-21T13:20:22;99735.44;;;14.65;59.02
7962;BME280;4026;43.652;24.906;2024-02-21T13:22:49;99736.63;;;14.50;59.00